sensor_id;sensor_type;location;lat;lon;timestamp;temperature;humidity
573;DHT22;271;51.114;13.780;2023-07-20T00:01:40;17.20;1.00
573;DHT22;271;51.114;13.780;2023-07-20T00:04:31;17.20;1.60
573;DHT22;271;51.114;13.780;2023-07-20T00:07:21;17.20;2.50
573;DHT22;271;51.114;13.780;2023-07-20T00:10:09;17.10;2.30
573;DHT22;271;51.114;13.780;2023-07-20T00:12:57;17.00;2.60
573;DHT22;271;51.114;13.780;2023-07-20T00:15:44;17.00;7.00
573;DHT22;271;51.114;13.780;2023-07-20T00:18:32;17.00;6.60
573;DHT22;271;51.114;13.780;2023-07-20T00:21:20;16.90;7.60
573;DHT22;271;51.114;13.780;2023-07-20T00:24:09;16.90;7.10
573;DHT22;271;51.114;13.780;2023-07-20T00:26:57;16.90;9.30
573;DHT22;271;51.114;13.780;2023-07-20T00:29:45;16.90;10.00
573;DHT22;271;51.114;13.780;2023-07-20T00:32:32;16.90;9.90
573;DHT22;271;51.114;13.780;2023-07-20T00:35:20;16.90;5.60
573;DHT22;271;51.114;13.780;2023-07-20T00:38:08;16.90;3.10
573;DHT22;271;51.114;13.780;2023-07-20T00:40:57;16.80;5.80
573;DHT22;271;51.114;13.780;2023-07-20T00:43:45;16.90;9.70
573;DHT22;271;51.114;13.780;2023-07-20T00:46:33;16.80;13.60
573;DHT22;271;51.114;13.780;2023-07-20T00:49:21;16.80;12.60
573;DHT22;271;51.114;13.780;2023-07-20T00:52:11;16.80;10.40
573;DHT22;271;51.114;13.780;2023-07-20T00:55:01;16.80;17.40
573;DHT22;271;51.114;13.780;2023-07-20T00:57:50;16.80;17.20
573;DHT22;271;51.114;13.780;2023-07-20T01:00:38;16.80;20.30
573;DHT22;271;51.114;13.780;2023-07-20T01:03:26;16.80;20.00
573;DHT22;271;51.114;13.780;2023-07-20T01:06:23;16.70;15.10
573;DHT22;271;51.114;13.780;2023-07-20T01:09:15;16.80;17.70
573;DHT22;271;51.114;13.780;2023-07-20T01:12:08;16.90;19.40
573;DHT22;271;51.114;13.780;2023-07-20T01:14:59;16.90;19.90
573;DHT22;271;51.114;13.780;2023-07-20T01:17:46;16.90;18.50
573;DHT22;271;51.114;13.780;2023-07-20T01:20:34;16.90;16.40
573;DHT22;271;51.114;13.780;2023-07-20T01:27:06;16.90;17.90
573;DHT22;271;51.114;13.780;2023-07-20T01:30:14;16.80;19.80
573;DHT22;271;51.114;13.780;2023-07-20T01:33:05;16.80;21.30
573;DHT22;271;51.114;13.780;2023-07-20T01:35:57;16.80;18.80
573;DHT22;271;51.114;13.780;2023-07-20T01:38:46;16.70;18.50
573;DHT22;271;51.114;13.780;2023-07-20T01:41:34;16.70;15.60
573;DHT22;271;51.114;13.780;2023-07-20T01:44:22;16.80;14.30
573;DHT22;271;51.114;13.780;2023-07-20T01:47:10;16.70;9.70
573;DHT22;271;51.114;13.780;2023-07-20T01:57:18;16.60;9.40
573;DHT22;271;51.114;13.780;2023-07-20T02:00:09;16.50;7.00
573;DHT22;271;51.114;13.780;2023-07-20T02:03:12;16.50;5.40
573;DHT22;271;51.114;13.780;2023-07-20T02:06:04;16.40;7.10
573;DHT22;271;51.114;13.780;2023-07-20T02:08:53;16.40;5.70
573;DHT22;271;51.114;13.780;2023-07-20T02:11:41;16.30;1.00
573;DHT22;271;51.114;13.780;2023-07-20T02:14:29;16.40;3.70
573;DHT22;271;51.114;13.780;2023-07-20T02:17:16;16.30;2.00
573;DHT22;271;51.114;13.780;2023-07-20T02:20:05;16.30;1.00
573;DHT22;271;51.114;13.780;2023-07-20T02:22:55;16.30;1.00
573;DHT22;271;51.114;13.780;2023-07-20T02:25:49;16.30;1.00
573;DHT22;271;51.114;13.780;2023-07-20T02:28:42;16.30;1.00
573;DHT22;271;51.114;13.780;2023-07-20T02:31:36;16.30;1.00
573;DHT22;271;51.114;13.780;2023-07-20T02:34:26;16.30;1.00
573;DHT22;271;51.114;13.780;2023-07-20T02:37:49;16.30;1.00
573;DHT22;271;51.114;13.780;2023-07-20T02:45:16;16.40;4.90
573;DHT22;271;51.114;13.780;2023-07-20T02:48:09;16.40;4.90
573;DHT22;271;51.114;13.780;2023-07-20T02:50:57;16.40;1.20
573;DHT22;271;51.114;13.780;2023-07-20T02:53:44;16.30;4.70
573;DHT22;271;51.114;13.780;2023-07-20T02:56:32;16.30;5.50
573;DHT22;271;51.114;13.780;2023-07-20T02:59:24;16.20;1.20
573;DHT22;271;51.114;13.780;2023-07-20T03:02:15;16.20;5.90
573;DHT22;271;51.114;13.780;2023-07-20T03:05:05;16.30;10.00
573;DHT22;271;51.114;13.780;2023-07-20T03:08:03;16.30;7.50
573;DHT22;271;51.114;13.780;2023-07-20T03:11:45;16.30;5.20
573;DHT22;271;51.114;13.780;2023-07-20T03:14:58;16.30;1.00
573;DHT22;271;51.114;13.780;2023-07-20T03:25:40;16.20;1.00
573;DHT22;271;51.114;13.780;2023-07-20T03:29:06;16.20;1.00
573;DHT22;271;51.114;13.780;2023-07-20T03:32:13;16.20;1.00
573;DHT22;271;51.114;13.780;2023-07-20T03:35:26;16.20;1.00
573;DHT22;271;51.114;13.780;2023-07-20T03:38:23;16.20;1.00
573;DHT22;271;51.114;13.780;2023-07-20T03:41:14;16.10;2.50
573;DHT22;271;51.114;13.780;2023-07-20T03:44:03;16.10;5.10
573;DHT22;271;51.114;13.780;2023-07-20T03:46:52;16.20;6.50
573;DHT22;271;51.114;13.780;2023-07-20T03:49:40;16.20;4.30
573;DHT22;271;51.114;13.780;2023-07-20T03:52:28;16.20;6.70
573;DHT22;271;51.114;13.780;2023-07-20T03:55:16;16.20;6.40
573;DHT22;271;51.114;13.780;2023-07-20T03:58:05;16.20;6.60
573;DHT22;271;51.114;13.780;2023-07-20T04:00:53;16.20;9.90
573;DHT22;271;51.114;13.780;2023-07-20T04:03:40;16.30;8.90
573;DHT22;271;51.114;13.780;2023-07-20T04:06:28;16.30;6.10
573;DHT22;271;51.114;13.780;2023-07-20T04:09:16;16.30;7.20
573;DHT22;271;51.114;13.780;2023-07-20T04:12:05;16.30;6.70
573;DHT22;271;51.114;13.780;2023-07-20T04:14:54;16.40;6.20
573;DHT22;271;51.114;13.780;2023-07-20T04:17:42;16.40;8.30
573;DHT22;271;51.114;13.780;2023-07-20T04:20:30;16.50;5.70
573;DHT22;271;51.114;13.780;2023-07-20T04:23:17;16.70;3.20
573;DHT22;271;51.114;13.780;2023-07-20T04:26:05;16.70;1.00
573;DHT22;271;51.114;13.780;2023-07-20T04:28:53;16.80;1.00
573;DHT22;271;51.114;13.780;2023-07-20T04:31:43;16.80;1.00
573;DHT22;271;51.114;13.780;2023-07-20T04:34:40;16.80;1.00
573;DHT22;271;51.114;13.780;2023-07-20T04:37:37;16.90;1.00
573;DHT22;271;51.114;13.780;2023-07-20T04:40:34;16.90;1.00
573;DHT22;271;51.114;13.780;2023-07-20T04:43:35;16.90;1.00
573;DHT22;271;51.114;13.780;2023-07-20T04:46:27;16.90;1.00
573;DHT22;271;51.114;13.780;2023-07-20T04:49:38;17.10;1.00
573;DHT22;271;51.114;13.780;2023-07-20T04:52:37;17.30;1.00
573;DHT22;271;51.114;13.780;2023-07-20T04:55:51;17.40;1.00
573;DHT22;271;51.114;13.780;2023-07-20T04:59:06;17.50;1.00
573;DHT22;271;51.114;13.780;2023-07-20T05:02:56;17.60;1.00
573;DHT22;271;51.114;13.780;2023-07-20T05:13:44;17.80;1.00
573;DHT22;271;51.114;13.780;2023-07-20T05:17:02;17.90;1.00
573;DHT22;271;51.114;13.780;2023-07-20T05:20:10;18.00;1.00
573;DHT22;271;51.114;13.780;2023-07-20T05:22:59;17.80;1.00
573;DHT22;271;51.114;13.780;2023-07-20T05:25:54;17.80;1.00
573;DHT22;271;51.114;13.780;2023-07-20T05:28:44;17.70;1.00
573;DHT22;271;51.114;13.780;2023-07-20T05:31:33;17.80;1.00
573;DHT22;271;51.114;13.780;2023-07-20T05:34:22;17.90;1.00
573;DHT22;271;51.114;13.780;2023-07-20T05:37:11;18.00;1.00
573;DHT22;271;51.114;13.780;2023-07-20T05:39:59;17.90;1.00
573;DHT22;271;51.114;13.780;2023-07-20T05:42:49;17.80;1.00
573;DHT22;271;51.114;13.780;2023-07-20T05:45:43;17.90;1.00
573;DHT22;271;51.114;13.780;2023-07-20T05:48:34;18.10;1.00
573;DHT22;271;51.114;13.780;2023-07-20T05:51:24;18.30;1.00
573;DHT22;271;51.114;13.780;2023-07-20T05:54:28;18.40;1.00
573;DHT22;271;51.114;13.780;2023-07-20T06:00:39;18.90;1.00
573;DHT22;271;51.114;13.780;2023-07-20T06:03:55;18.90;1.00
573;DHT22;271;51.114;13.780;2023-07-20T06:06:54;18.70;1.00
573;DHT22;271;51.114;13.780;2023-07-20T06:09:49;18.60;1.00
573;DHT22;271;51.114;13.780;2023-07-20T06:12:56;18.60;1.00
573;DHT22;271;51.114;13.780;2023-07-20T06:15:47;18.70;1.00
573;DHT22;271;51.114;13.780;2023-07-20T06:22:03;18.80;1.00
573;DHT22;271;51.114;13.780;2023-07-20T06:24:52;18.70;1.00
573;DHT22;271;51.114;13.780;2023-07-20T06:27:40;18.50;1.00
573;DHT22;271;51.114;13.780;2023-07-20T06:30:29;18.60;1.00
573;DHT22;271;51.114;13.780;2023-07-20T06:33:19;18.60;1.00
573;DHT22;271;51.114;13.780;2023-07-20T06:36:10;18.80;1.00
573;DHT22;271;51.114;13.780;2023-07-20T06:39:00;19.10;1.00
573;DHT22;271;51.114;13.780;2023-07-20T06:41:48;19.60;1.00
573;DHT22;271;51.114;13.780;2023-07-20T06:44:37;19.80;1.00
573;DHT22;271;51.114;13.780;2023-07-20T06:47:26;19.50;1.00
573;DHT22;271;51.114;13.780;2023-07-20T06:50:15;19.30;1.00
573;DHT22;271;51.114;13.780;2023-07-20T06:53:18;19.10;1.00
573;DHT22;271;51.114;13.780;2023-07-20T06:56:40;18.70;1.00
573;DHT22;271;51.114;13.780;2023-07-20T06:59:48;18.70;1.00
573;DHT22;271;51.114;13.780;2023-07-20T07:03:09;18.50;1.00
573;DHT22;271;51.114;13.780;2023-07-20T07:05:59;18.40;1.00
573;DHT22;271;51.114;13.780;2023-07-20T07:09:04;18.40;1.00
573;DHT22;271;51.114;13.780;2023-07-20T07:12:11;18.40;1.00
573;DHT22;271;51.114;13.780;2023-07-20T07:15:00;18.30;1.00
573;DHT22;271;51.114;13.780;2023-07-20T07:17:49;18.40;1.00
573;DHT22;271;51.114;13.780;2023-07-20T07:20:37;18.60;1.00
573;DHT22;271;51.114;13.780;2023-07-20T07:23:25;18.50;1.00
573;DHT22;271;51.114;13.780;2023-07-20T07:26:13;18.60;1.00
573;DHT22;271;51.114;13.780;2023-07-20T07:29:04;18.80;1.00
573;DHT22;271;51.114;13.780;2023-07-20T07:31:53;18.90;1.00
573;DHT22;271;51.114;13.780;2023-07-20T07:34:44;18.90;1.00
573;DHT22;271;51.114;13.780;2023-07-20T07:37:33;18.90;1.00
573;DHT22;271;51.114;13.780;2023-07-20T07:40:23;19.00;1.00
573;DHT22;271;51.114;13.780;2023-07-20T07:43:11;19.00;1.00
573;DHT22;271;51.114;13.780;2023-07-20T07:46:02;19.00;1.00
573;DHT22;271;51.114;13.780;2023-07-20T07:48:50;19.10;1.00
573;DHT22;271;51.114;13.780;2023-07-20T07:51:53;19.10;1.00
573;DHT22;271;51.114;13.780;2023-07-20T07:54:57;19.30;1.00
573;DHT22;271;51.114;13.780;2023-07-20T07:57:44;19.50;1.00
573;DHT22;271;51.114;13.780;2023-07-20T08:00:54;19.50;1.00
573;DHT22;271;51.114;13.780;2023-07-20T08:03:56;19.60;1.00
573;DHT22;271;51.114;13.780;2023-07-20T08:06:45;20.00;1.00
573;DHT22;271;51.114;13.780;2023-07-20T08:09:51;20.30;1.00
573;DHT22;271;51.114;13.780;2023-07-20T08:12:59;21.60;1.00
573;DHT22;271;51.114;13.780;2023-07-20T08:19:44;23.90;1.00
573;DHT22;271;51.114;13.780;2023-07-20T08:22:33;23.90;1.00
573;DHT22;271;51.114;13.780;2023-07-20T08:25:21;23.90;1.00
573;DHT22;271;51.114;13.780;2023-07-20T08:28:09;24.20;1.00
573;DHT22;271;51.114;13.780;2023-07-20T08:30:57;24.40;1.00
573;DHT22;271;51.114;13.780;2023-07-20T08:33:45;23.70;1.00
573;DHT22;271;51.114;13.780;2023-07-20T08:36:38;22.90;1.00
573;DHT22;271;51.114;13.780;2023-07-20T08:39:25;23.00;1.00
573;DHT22;271;51.114;13.780;2023-07-20T08:42:14;23.10;1.00
573;DHT22;271;51.114;13.780;2023-07-20T08:45:05;23.10;1.00
573;DHT22;271;51.114;13.780;2023-07-20T08:47:58;22.70;1.00
573;DHT22;271;51.114;13.780;2023-07-20T08:50:56;23.50;1.00
573;DHT22;271;51.114;13.780;2023-07-20T08:53:48;24.70;1.00
573;DHT22;271;51.114;13.780;2023-07-20T08:56:55;25.40;1.00
573;DHT22;271;51.114;13.780;2023-07-20T08:59:44;26.10;1.00
573;DHT22;271;51.114;13.780;2023-07-20T09:02:35;26.40;1.00
573;DHT22;271;51.114;13.780;2023-07-20T09:05:29;26.70;1.00
573;DHT22;271;51.114;13.780;2023-07-20T09:08:17;27.00;1.00
573;DHT22;271;51.114;13.780;2023-07-20T09:11:07;26.60;1.00
573;DHT22;271;51.114;13.780;2023-07-20T09:14:05;26.20;1.00
573;DHT22;271;51.114;13.780;2023-07-20T09:17:11;25.70;1.00
573;DHT22;271;51.114;13.780;2023-07-20T09:20:02;25.00;1.00
573;DHT22;271;51.114;13.780;2023-07-20T09:22:54;24.20;1.00
573;DHT22;271;51.114;13.780;2023-07-20T09:25:41;24.10;1.00
573;DHT22;271;51.114;13.780;2023-07-20T09:28:41;24.10;1.00
573;DHT22;271;51.114;13.780;2023-07-20T09:31:30;24.70;1.00
573;DHT22;271;51.114;13.780;2023-07-20T09:34:19;24.70;1.00
573;DHT22;271;51.114;13.780;2023-07-20T09:37:07;24.20;1.00
573;DHT22;271;51.114;13.780;2023-07-20T09:39:55;23.70;1.00
573;DHT22;271;51.114;13.780;2023-07-20T09:42:43;23.50;1.00
573;DHT22;271;51.114;13.780;2023-07-20T09:45:35;23.80;1.00
573;DHT22;271;51.114;13.780;2023-07-20T09:48:31;24.00;1.00
573;DHT22;271;51.114;13.780;2023-07-20T09:51:19;23.80;1.00
573;DHT22;271;51.114;13.780;2023-07-20T09:54:08;23.40;1.00
573;DHT22;271;51.114;13.780;2023-07-20T09:56:56;23.30;1.00
573;DHT22;271;51.114;13.780;2023-07-20T09:59:48;23.00;1.00
573;DHT22;271;51.114;13.780;2023-07-20T10:02:45;22.90;1.00
573;DHT22;271;51.114;13.780;2023-07-20T10:05:39;22.80;1.00
573;DHT22;271;51.114;13.780;2023-07-20T10:08:31;22.30;1.00
573;DHT22;271;51.114;13.780;2023-07-20T10:11:22;22.20;1.00
573;DHT22;271;51.114;13.780;2023-07-20T10:14:19;21.90;1.00
573;DHT22;271;51.114;13.780;2023-07-20T10:17:12;21.50;1.00
573;DHT22;271;51.114;13.780;2023-07-20T10:20:02;21.00;1.00
573;DHT22;271;51.114;13.780;2023-07-20T10:22:53;20.90;1.00
573;DHT22;271;51.114;13.780;2023-07-20T10:25:42;20.80;1.00
573;DHT22;271;51.114;13.780;2023-07-20T10:28:30;21.00;1.00
573;DHT22;271;51.114;13.780;2023-07-20T10:31:23;21.40;1.00
573;DHT22;271;51.114;13.780;2023-07-20T10:34:11;21.90;1.00
573;DHT22;271;51.114;13.780;2023-07-20T10:37:09;21.90;1.00
573;DHT22;271;51.114;13.780;2023-07-20T10:39:57;21.70;1.00
573;DHT22;271;51.114;13.780;2023-07-20T10:42:47;21.60;1.00
573;DHT22;271;51.114;13.780;2023-07-20T10:45:42;21.60;1.00
573;DHT22;271;51.114;13.780;2023-07-20T10:48:33;21.50;1.00
573;DHT22;271;51.114;13.780;2023-07-20T10:51:21;21.30;1.00
573;DHT22;271;51.114;13.780;2023-07-20T10:54:34;21.10;1.00
573;DHT22;271;51.114;13.780;2023-07-20T10:57:28;21.30;1.00
573;DHT22;271;51.114;13.780;2023-07-20T11:00:19;21.40;1.00
573;DHT22;271;51.114;13.780;2023-07-20T11:03:09;21.50;1.00
573;DHT22;271;51.114;13.780;2023-07-20T11:05:57;22.00;1.00
573;DHT22;271;51.114;13.780;2023-07-20T11:08:45;22.20;1.00
573;DHT22;271;51.114;13.780;2023-07-20T11:11:35;22.10;1.00
573;DHT22;271;51.114;13.780;2023-07-20T11:14:24;22.10;1.00
573;DHT22;271;51.114;13.780;2023-07-20T11:17:13;22.00;1.00
573;DHT22;271;51.114;13.780;2023-07-20T11:20:02;22.00;1.00
573;DHT22;271;51.114;13.780;2023-07-20T11:22:51;22.20;1.00
573;DHT22;271;51.114;13.780;2023-07-20T11:25:40;22.30;1.00
573;DHT22;271;51.114;13.780;2023-07-20T11:28:31;22.30;1.00
573;DHT22;271;51.114;13.780;2023-07-20T11:31:19;22.30;1.00
573;DHT22;271;51.114;13.780;2023-07-20T11:34:09;22.40;1.00
573;DHT22;271;51.114;13.780;2023-07-20T11:36:57;22.60;1.00
573;DHT22;271;51.114;13.780;2023-07-20T11:39:45;22.90;1.00
573;DHT22;271;51.114;13.780;2023-07-20T11:42:34;22.90;1.00
573;DHT22;271;51.114;13.780;2023-07-20T11:45:25;22.90;1.00
573;DHT22;271;51.114;13.780;2023-07-20T11:48:16;23.00;1.00
573;DHT22;271;51.114;13.780;2023-07-20T11:51:04;22.90;1.00
573;DHT22;271;51.114;13.780;2023-07-20T11:53:52;22.90;1.00
573;DHT22;271;51.114;13.780;2023-07-20T11:56:41;22.90;1.00
573;DHT22;271;51.114;13.780;2023-07-20T11:59:30;22.80;1.00
573;DHT22;271;51.114;13.780;2023-07-20T12:02:20;22.70;1.00
573;DHT22;271;51.114;13.780;2023-07-20T12:05:08;22.60;1.00
573;DHT22;271;51.114;13.780;2023-07-20T12:07:56;22.60;1.00
573;DHT22;271;51.114;13.780;2023-07-20T12:10:43;22.60;1.00
573;DHT22;271;51.114;13.780;2023-07-20T12:13:38;22.40;1.00
573;DHT22;271;51.114;13.780;2023-07-20T12:16:27;22.20;1.00
573;DHT22;271;51.114;13.780;2023-07-20T12:19:17;22.00;1.00
573;DHT22;271;51.114;13.780;2023-07-20T12:22:06;21.70;1.00
573;DHT22;271;51.114;13.780;2023-07-20T12:24:54;21.40;1.00
573;DHT22;271;51.114;13.780;2023-07-20T12:27:44;21.30;1.00
573;DHT22;271;51.114;13.780;2023-07-20T12:30:33;21.30;1.00
573;DHT22;271;51.114;13.780;2023-07-20T12:33:22;21.20;1.00
573;DHT22;271;51.114;13.780;2023-07-20T12:36:11;21.10;1.00
573;DHT22;271;51.114;13.780;2023-07-20T12:38:59;21.10;1.00
573;DHT22;271;51.114;13.780;2023-07-20T12:41:47;21.20;1.00
573;DHT22;271;51.114;13.780;2023-07-20T12:44:35;21.20;1.00
573;DHT22;271;51.114;13.780;2023-07-20T12:47:23;21.30;1.00
573;DHT22;271;51.114;13.780;2023-07-20T12:50:11;21.30;1.00
573;DHT22;271;51.114;13.780;2023-07-20T12:53:00;21.30;1.00
573;DHT22;271;51.114;13.780;2023-07-20T12:55:50;21.30;1.00
573;DHT22;271;51.114;13.780;2023-07-20T12:58:37;21.30;1.00
573;DHT22;271;51.114;13.780;2023-07-20T13:01:25;21.10;1.00
573;DHT22;271;51.114;13.780;2023-07-20T13:04:13;21.20;1.00
573;DHT22;271;51.114;13.780;2023-07-20T13:07:00;21.10;1.00
573;DHT22;271;51.114;13.780;2023-07-20T13:09:49;21.00;1.00
573;DHT22;271;51.114;13.780;2023-07-20T13:12:38;20.90;1.00
573;DHT22;271;51.114;13.780;2023-07-20T13:15:30;20.90;1.00
573;DHT22;271;51.114;13.780;2023-07-20T13:18:18;20.90;1.00
573;DHT22;271;51.114;13.780;2023-07-20T13:21:06;20.80;1.00
573;DHT22;271;51.114;13.780;2023-07-20T13:23:57;20.80;1.00
573;DHT22;271;51.114;13.780;2023-07-20T13:26:46;20.80;1.00
573;DHT22;271;51.114;13.780;2023-07-20T13:29:34;20.90;1.00
573;DHT22;271;51.114;13.780;2023-07-20T13:32:22;20.80;1.00
573;DHT22;271;51.114;13.780;2023-07-20T13:35:10;20.80;1.00
573;DHT22;271;51.114;13.780;2023-07-20T13:37:58;20.80;1.00
573;DHT22;271;51.114;13.780;2023-07-20T13:40:45;20.60;1.00
573;DHT22;271;51.114;13.780;2023-07-20T13:43:35;20.40;1.00
573;DHT22;271;51.114;13.780;2023-07-20T13:46:22;20.40;1.00
573;DHT22;271;51.114;13.780;2023-07-20T13:49:10;20.40;1.00
573;DHT22;271;51.114;13.780;2023-07-20T13:52:01;20.50;1.00
573;DHT22;271;51.114;13.780;2023-07-20T13:54:48;20.80;1.00
573;DHT22;271;51.114;13.780;2023-07-20T13:57:36;20.80;1.00
573;DHT22;271;51.114;13.780;2023-07-20T14:00:26;20.70;1.00
573;DHT22;271;51.114;13.780;2023-07-20T14:03:19;20.90;1.00
573;DHT22;271;51.114;13.780;2023-07-20T14:06:06;20.90;1.00
573;DHT22;271;51.114;13.780;2023-07-20T14:08:54;20.80;1.00
573;DHT22;271;51.114;13.780;2023-07-20T14:11:42;20.90;1.00
573;DHT22;271;51.114;13.780;2023-07-20T14:14:30;21.00;1.00
573;DHT22;271;51.114;13.780;2023-07-20T14:17:19;21.00;1.00
573;DHT22;271;51.114;13.780;2023-07-20T14:20:11;21.00;1.00
573;DHT22;271;51.114;13.780;2023-07-20T14:22:58;20.80;1.00
573;DHT22;271;51.114;13.780;2023-07-20T14:25:46;20.70;1.00
573;DHT22;271;51.114;13.780;2023-07-20T14:28:34;20.80;1.00
573;DHT22;271;51.114;13.780;2023-07-20T14:31:22;20.90;1.00
573;DHT22;271;51.114;13.780;2023-07-20T14:34:11;20.90;1.00
573;DHT22;271;51.114;13.780;2023-07-20T14:37:05;21.00;1.00
573;DHT22;271;51.114;13.780;2023-07-20T14:39:53;21.10;1.00
573;DHT22;271;51.114;13.780;2023-07-20T14:42:41;21.10;1.00
573;DHT22;271;51.114;13.780;2023-07-20T14:45:28;21.20;1.00
573;DHT22;271;51.114;13.780;2023-07-20T14:48:22;21.30;1.00
573;DHT22;271;51.114;13.780;2023-07-20T14:51:11;21.40;1.00
573;DHT22;271;51.114;13.780;2023-07-20T14:53:59;21.50;1.00
573;DHT22;271;51.114;13.780;2023-07-20T14:56:51;21.60;1.00
573;DHT22;271;51.114;13.780;2023-07-20T14:59:39;21.80;1.00
573;DHT22;271;51.114;13.780;2023-07-20T15:02:27;21.80;1.00
573;DHT22;271;51.114;13.780;2023-07-20T15:05:20;21.70;1.00
573;DHT22;271;51.114;13.780;2023-07-20T15:08:10;21.60;1.00
573;DHT22;271;51.114;13.780;2023-07-20T15:10:58;21.50;1.00
573;DHT22;271;51.114;13.780;2023-07-20T15:13:45;21.30;1.00
573;DHT22;271;51.114;13.780;2023-07-20T15:16:33;21.40;1.00
573;DHT22;271;51.114;13.780;2023-07-20T15:19:21;21.40;1.00
573;DHT22;271;51.114;13.780;2023-07-20T15:22:09;21.50;1.00
573;DHT22;271;51.114;13.780;2023-07-20T15:24:58;21.50;1.00
573;DHT22;271;51.114;13.780;2023-07-20T15:27:47;21.50;1.00
573;DHT22;271;51.114;13.780;2023-07-20T15:30:35;21.40;1.00
573;DHT22;271;51.114;13.780;2023-07-20T15:33:22;21.50;1.00
573;DHT22;271;51.114;13.780;2023-07-20T15:36:10;21.60;1.00
573;DHT22;271;51.114;13.780;2023-07-20T15:39:01;21.70;1.00
573;DHT22;271;51.114;13.780;2023-07-20T15:41:50;21.80;1.00
573;DHT22;271;51.114;13.780;2023-07-20T15:44:38;21.90;1.00
573;DHT22;271;51.114;13.780;2023-07-20T15:47:26;21.90;1.00
573;DHT22;271;51.114;13.780;2023-07-20T15:50:16;21.80;1.00
573;DHT22;271;51.114;13.780;2023-07-20T15:53:04;21.70;1.00
573;DHT22;271;51.114;13.780;2023-07-20T15:55:55;21.70;1.00
573;DHT22;271;51.114;13.780;2023-07-20T15:58:44;21.70;1.00
573;DHT22;271;51.114;13.780;2023-07-20T16:01:32;21.70;1.00
573;DHT22;271;51.114;13.780;2023-07-20T16:04:20;21.70;1.00
573;DHT22;271;51.114;13.780;2023-07-20T16:07:08;21.80;1.00
573;DHT22;271;51.114;13.780;2023-07-20T16:09:56;21.80;1.00
573;DHT22;271;51.114;13.780;2023-07-20T16:12:47;21.80;1.00
573;DHT22;271;51.114;13.780;2023-07-20T16:15:36;21.80;1.00
573;DHT22;271;51.114;13.780;2023-07-20T16:18:24;21.80;1.00
573;DHT22;271;51.114;13.780;2023-07-20T16:21:12;21.80;1.00
573;DHT22;271;51.114;13.780;2023-07-20T16:24:03;21.80;1.00
573;DHT22;271;51.114;13.780;2023-07-20T16:26:51;21.70;1.00
573;DHT22;271;51.114;13.780;2023-07-20T16:29:40;21.70;1.00
573;DHT22;271;51.114;13.780;2023-07-20T16:32:29;21.70;1.00
573;DHT22;271;51.114;13.780;2023-07-20T16:35:20;21.60;1.00
573;DHT22;271;51.114;13.780;2023-07-20T16:38:08;21.50;1.00
573;DHT22;271;51.114;13.780;2023-07-20T16:40:56;21.50;1.00
573;DHT22;271;51.114;13.780;2023-07-20T16:43:44;21.30;1.00
573;DHT22;271;51.114;13.780;2023-07-20T16:46:34;21.30;1.00
573;DHT22;271;51.114;13.780;2023-07-20T16:49:23;21.20;1.00
573;DHT22;271;51.114;13.780;2023-07-20T16:52:13;21.10;1.00
573;DHT22;271;51.114;13.780;2023-07-20T16:55:00;20.90;1.00
573;DHT22;271;51.114;13.780;2023-07-20T16:57:48;20.80;1.00
573;DHT22;271;51.114;13.780;2023-07-20T17:00:36;20.80;1.00
573;DHT22;271;51.114;13.780;2023-07-20T17:03:31;20.80;1.00
573;DHT22;271;51.114;13.780;2023-07-20T17:06:20;20.70;1.00
573;DHT22;271;51.114;13.780;2023-07-20T17:09:08;20.80;1.00
573;DHT22;271;51.114;13.780;2023-07-20T17:11:56;20.70;1.00
573;DHT22;271;51.114;13.780;2023-07-20T17:14:50;20.70;1.00
573;DHT22;271;51.114;13.780;2023-07-20T17:17:39;20.60;1.00
573;DHT22;271;51.114;13.780;2023-07-20T17:20:28;20.60;1.00
573;DHT22;271;51.114;13.780;2023-07-20T17:23:18;20.60;1.00
573;DHT22;271;51.114;13.780;2023-07-20T17:26:12;20.50;1.00
573;DHT22;271;51.114;13.780;2023-07-20T17:29:00;20.50;1.00
573;DHT22;271;51.114;13.780;2023-07-20T17:31:56;20.40;1.00
573;DHT22;271;51.114;13.780;2023-07-20T17:34:45;20.30;1.00
573;DHT22;271;51.114;13.780;2023-07-20T17:37:48;20.20;1.00
573;DHT22;271;51.114;13.780;2023-07-20T17:40:41;20.20;1.00
573;DHT22;271;51.114;13.780;2023-07-20T17:43:31;20.20;1.00
573;DHT22;271;51.114;13.780;2023-07-20T17:46:25;20.10;1.00
573;DHT22;271;51.114;13.780;2023-07-20T17:49:18;20.10;1.00
573;DHT22;271;51.114;13.780;2023-07-20T17:52:06;20.10;1.00
573;DHT22;271;51.114;13.780;2023-07-20T17:54:57;20.10;1.00
573;DHT22;271;51.114;13.780;2023-07-20T17:57:47;20.10;1.00
573;DHT22;271;51.114;13.780;2023-07-20T18:00:38;20.00;1.00
573;DHT22;271;51.114;13.780;2023-07-20T18:03:43;19.90;1.00
573;DHT22;271;51.114;13.780;2023-07-20T18:06:39;19.90;1.00
573;DHT22;271;51.114;13.780;2023-07-20T18:09:28;20.00;1.00
573;DHT22;271;51.114;13.780;2023-07-20T18:12:17;19.90;1.00
573;DHT22;271;51.114;13.780;2023-07-20T18:15:11;19.80;1.00
573;DHT22;271;51.114;13.780;2023-07-20T18:18:04;19.70;1.00
573;DHT22;271;51.114;13.780;2023-07-20T18:20:55;19.70;1.00
573;DHT22;271;51.114;13.780;2023-07-20T18:23:44;19.60;1.00
573;DHT22;271;51.114;13.780;2023-07-20T18:26:33;19.60;1.00
573;DHT22;271;51.114;13.780;2023-07-20T18:29:25;19.50;1.00
573;DHT22;271;51.114;13.780;2023-07-20T18:32:29;19.40;1.00
573;DHT22;271;51.114;13.780;2023-07-20T18:35:29;19.40;1.00
573;DHT22;271;51.114;13.780;2023-07-20T18:38:24;19.30;1.00
573;DHT22;271;51.114;13.780;2023-07-20T18:41:30;19.20;1.00
573;DHT22;271;51.114;13.780;2023-07-20T18:44:23;19.10;1.00
573;DHT22;271;51.114;13.780;2023-07-20T18:47:14;19.00;1.00
573;DHT22;271;51.114;13.780;2023-07-20T18:50:12;18.90;1.00
573;DHT22;271;51.114;13.780;2023-07-20T18:53:00;18.80;1.00
573;DHT22;271;51.114;13.780;2023-07-20T18:56:00;18.70;1.00
573;DHT22;271;51.114;13.780;2023-07-20T18:58:54;18.60;1.00
573;DHT22;271;51.114;13.780;2023-07-20T19:01:46;18.60;1.00
573;DHT22;271;51.114;13.780;2023-07-20T19:04:36;18.40;1.00
573;DHT22;271;51.114;13.780;2023-07-20T19:07:40;18.30;1.00
573;DHT22;271;51.114;13.780;2023-07-20T19:10:31;18.40;1.00
573;DHT22;271;51.114;13.780;2023-07-20T19:13:22;18.20;1.00
573;DHT22;271;51.114;13.780;2023-07-20T19:16:11;18.10;1.00
573;DHT22;271;51.114;13.780;2023-07-20T19:19:02;18.10;1.00
573;DHT22;271;51.114;13.780;2023-07-20T19:22:00;17.90;1.00
573;DHT22;271;51.114;13.780;2023-07-20T19:24:51;17.80;1.00
573;DHT22;271;51.114;13.780;2023-07-20T19:27:44;17.70;1.00
573;DHT22;271;51.114;13.780;2023-07-20T19:30:41;17.60;1.00
573;DHT22;271;51.114;13.780;2023-07-20T19:33:46;17.60;1.00
573;DHT22;271;51.114;13.780;2023-07-20T19:36:40;17.50;1.00
573;DHT22;271;51.114;13.780;2023-07-20T19:39:28;17.40;1.00
573;DHT22;271;51.114;13.780;2023-07-20T19:42:18;17.40;1.00
573;DHT22;271;51.114;13.780;2023-07-20T19:45:14;17.30;1.00
573;DHT22;271;51.114;13.780;2023-07-20T19:48:06;17.20;1.00
573;DHT22;271;51.114;13.780;2023-07-20T19:51:08;17.20;1.00
573;DHT22;271;51.114;13.780;2023-07-20T19:53:56;17.10;1.00
573;DHT22;271;51.114;13.780;2023-07-20T19:56:44;17.10;1.00
573;DHT22;271;51.114;13.780;2023-07-20T19:59:33;17.10;1.00
573;DHT22;271;51.114;13.780;2023-07-20T20:02:22;17.00;1.00